sensor_id;sensor_type;location;lat;lon;timestamp;pressure;altitude;pressure_sealevel;temperature;humidity
30081;BME280;16902;50.816;12.828;2024-03-07T00:03:59;98509.97;;;2.10;100.00
30081;BME280;16902;50.816;12.828;2024-03-07T00:09:00;98507.56;;;2.20;100.00
30081;BME280;16902;50.816;12.828;2024-03-07T00:14:03;98506.91;;;2.29;100.00
30081;BME280;16902;50.816;12.828;2024-03-07T00:19:07;98504.88;;;2.21;100.00
30081;BME280;16902;50.816;12.828;2024-03-07T00:24:09;98514.00;;;2.25;100.00
30081;BME280;16902;50.816;12.828;2024-03-07T00:29:10;98505.31;;;2.39;100.00
30081;BME280;16902;50.816;12.828;2024-03-07T00:34:15;98499.97;;;2.42;100.00
30081;BME280;16902;50.816;12.828;2024-03-07T00:39:26;98504.56;;;2.50;100.00
30081;BME280;16902;50.816;12.828;2024-03-07T00:44:28;98506.75;;;2.43;100.00
30081;BME280;16902;50.816;12.828;2024-03-07T00:49:29;98495.16;;;2.38;100.00
30081;BME280;16902;50.816;12.828;2024-03-07T00:54:32;98492.75;;;2.47;100.00
30081;BME280;16902;50.816;12.828;2024-03-07T00:59:33;98493.66;;;2.46;100.00
30081;BME280;16902;50.816;12.828;2024-03-07T01:04:35;98493.25;;;2.52;100.00
30081;BME280;16902;50.816;12.828;2024-03-07T01:09:37;98486.72;;;2.60;100.00
30081;BME280;16902;50.816;12.828;2024-03-07T01:14:39;98484.72;;;2.52;100.00
30081;BME280;16902;50.816;12.828;2024-03-07T01:19:40;98483.94;;;2.63;100.00
30081;BME280;16902;50.816;12.828;2024-03-07T01:24:42;98473.31;;;2.67;100.00
30081;BME280;16902;50.816;12.828;2024-03-07T01:29:44;98473.88;;;2.60;100.00
30081;BME280;16902;50.816;12.828;2024-03-07T01:34:46;98479.13;;;2.58;100.00
30081;BME280;16902;50.816;12.828;2024-03-07T01:39:48;98480.75;;;2.59;100.00
30081;BME280;16902;50.816;12.828;2024-03-07T01:44:49;98476.06;;;2.53;100.00
30081;BME280;16902;50.816;12.828;2024-03-07T01:49:51;98476.53;;;2.47;100.00
30081;BME280;16902;50.816;12.828;2024-03-07T01:54:54;98476.53;;;2.47;100.00
30081;BME280;16902;50.816;12.828;2024-03-07T01:59:56;98471.16;;;2.26;100.00
30081;BME280;16902;50.816;12.828;2024-03-07T02:04:58;98461.66;;;2.15;100.00
30081;BME280;16902;50.816;12.828;2024-03-07T02:10:01;98466.34;;;2.21;100.00
30081;BME280;16902;50.816;12.828;2024-03-07T02:15:04;98461.94;;;1.99;100.00
30081;BME280;16902;50.816;12.828;2024-03-07T02:20:06;98448.00;;;1.91;100.00
30081;BME280;16902;50.816;12.828;2024-03-07T02:25:09;98453.13;;;1.91;100.00
30081;BME280;16902;50.816;12.828;2024-03-07T02:30:11;98445.25;;;1.81;100.00
30081;BME280;16902;50.816;12.828;2024-03-07T02:35:14;98440.28;;;1.91;100.00
30081;BME280;16902;50.816;12.828;2024-03-07T02:40:17;98445.41;;;1.91;100.00
30081;BME280;16902;50.816;12.828;2024-03-07T02:45:18;98440.09;;;1.94;100.00
30081;BME280;16902;50.816;12.828;2024-03-07T02:50:20;98441.38;;;1.99;100.00
30081;BME280;16902;50.816;12.828;2024-03-07T02:55:24;98431.28;;;2.09;100.00
30081;BME280;16902;50.816;12.828;2024-03-07T03:00:26;98429.91;;;2.16;100.00
30081;BME280;16902;50.816;12.828;2024-03-07T03:05:28;98429.34;;;2.24;100.00
30081;BME280;16902;50.816;12.828;2024-03-07T03:10:31;98432.25;;;2.19;100.00
30081;BME280;16902;50.816;12.828;2024-03-07T03:15:34;98429.19;;;2.14;100.00
30081;BME280;16902;50.816;12.828;2024-03-07T03:20:36;98425.56;;;2.17;100.00
30081;BME280;16902;50.816;12.828;2024-03-07T03:25:42;98431.31;;;2.20;100.00
30081;BME280;16902;50.816;12.828;2024-03-07T03:30:43;98437.88;;;2.24;100.00
30081;BME280;16902;50.816;12.828;2024-03-07T03:35:45;98425.66;;;2.28;100.00
30081;BME280;16902;50.816;12.828;2024-03-07T03:40:47;98438.38;;;2.29;100.00
30081;BME280;16902;50.816;12.828;2024-03-07T03:45:49;98432.78;;;2.36;100.00
30081;BME280;16902;50.816;12.828;2024-03-07T03:50:51;98427.75;;;2.34;100.00
30081;BME280;16902;50.816;12.828;2024-03-07T03:55:54;98425.94;;;2.47;100.00
30081;BME280;16902;50.816;12.828;2024-03-07T04:00:56;98422.66;;;2.45;100.00
30081;BME280;16902;50.816;12.828;2024-03-07T04:05:59;98430.13;;;2.37;100.00
30081;BME280;16902;50.816;12.828;2024-03-07T04:11:01;98426.75;;;2.48;100.00
30081;BME280;16902;50.816;12.828;2024-03-07T04:16:03;98431.66;;;2.51;100.00
30081;BME280;16902;50.816;12.828;2024-03-07T04:21:06;98429.28;;;2.37;100.00
30081;BME280;16902;50.816;12.828;2024-03-07T04:26:10;98427.50;;;2.26;100.00
30081;BME280;16902;50.816;12.828;2024-03-07T04:31:13;98425.41;;;2.31;100.00
30081;BME280;16902;50.816;12.828;2024-03-07T04:36:15;98421.47;;;2.38;100.00
30081;BME280;16902;50.816;12.828;2024-03-07T04:41:17;98414.34;;;2.42;100.00
30081;BME280;16902;50.816;12.828;2024-03-07T04:46:19;98414.25;;;2.43;100.00
30081;BME280;16902;50.816;12.828;2024-03-07T04:51:21;98412.81;;;2.39;100.00
30081;BME280;16902;50.816;12.828;2024-03-07T04:56:23;98415.06;;;2.44;100.00
30081;BME280;16902;50.816;12.828;2024-03-07T05:01:25;98421.72;;;2.46;100.00
30081;BME280;16902;50.816;12.828;2024-03-07T05:06:26;98417.16;;;2.50;100.00
30081;BME280;16902;50.816;12.828;2024-03-07T05:11:32;98409.25;;;2.53;100.00
30081;BME280;16902;50.816;12.828;2024-03-07T05:16:34;98413.44;;;2.54;100.00
30081;BME280;16902;50.816;12.828;2024-03-07T05:21:37;98416.28;;;2.62;100.00
30081;BME280;16902;50.816;12.828;2024-03-07T05:26:44;98421.78;;;2.69;100.00
30081;BME280;16902;50.816;12.828;2024-03-07T05:31:46;98419.69;;;2.74;100.00
30081;BME280;16902;50.816;12.828;2024-03-07T05:36:48;98419.00;;;2.72;100.00
30081;BME280;16902;50.816;12.828;2024-03-07T05:41:50;98415.81;;;2.68;100.00
30081;BME280;16902;50.816;12.828;2024-03-07T05:46:52;98413.72;;;2.62;100.00
30081;BME280;16902;50.816;12.828;2024-03-07T05:51:53;98415.94;;;2.67;100.00
30081;BME280;16902;50.816;12.828;2024-03-07T05:56:55;98419.94;;;2.71;100.00
30081;BME280;16902;50.816;12.828;2024-03-07T06:01:57;98422.97;;;2.76;100.00
30081;BME280;16902;50.816;12.828;2024-03-07T06:06:58;98419.94;;;2.71;100.00
30081;BME280;16902;50.816;12.828;2024-03-07T06:12:01;98426.59;;;2.73;100.00
30081;BME280;16902;50.816;12.828;2024-03-07T06:17:17;98432.06;;;2.80;100.00
30081;BME280;16902;50.816;12.828;2024-03-07T06:22:23;98433.41;;;2.86;100.00
30081;BME280;16902;50.816;12.828;2024-03-07T06:27:25;98439.09;;;2.89;100.00
30081;BME280;16902;50.816;12.828;2024-03-07T06:32:39;98434.16;;;2.75;100.00
30081;BME280;16902;50.816;12.828;2024-03-07T06:37:41;98439.09;;;2.78;100.00
30081;BME280;16902;50.816;12.828;2024-03-07T06:42:42;98433.47;;;2.62;100.00
30081;BME280;16902;50.816;12.828;2024-03-07T06:47:44;98436.06;;;2.73;100.00
30081;BME280;16902;50.816;12.828;2024-03-07T06:52:46;98436.53;;;2.78;100.00
30081;BME280;16902;50.816;12.828;2024-03-07T06:57:48;98441.78;;;2.76;100.00
30081;BME280;16902;50.816;12.828;2024-03-07T07:02:50;98439.91;;;2.78;100.00
30081;BME280;16902;50.816;12.828;2024-03-07T07:07:52;98445.38;;;2.63;100.00
30081;BME280;16902;50.816;12.828;2024-03-07T07:12:53;98451.69;;;2.70;100.00
30081;BME280;16902;50.816;12.828;2024-03-07T07:17:56;98446.41;;;2.60;100.00
30081;BME280;16902;50.816;12.828;2024-03-07T07:22:58;98447.88;;;2.87;100.00
30081;BME280;16902;50.816;12.828;2024-03-07T07:28:02;98453.88;;;3.09;100.00
30081;BME280;16902;50.816;12.828;2024-03-07T07:33:06;98439.84;;;3.02;100.00
30081;BME280;16902;50.816;12.828;2024-03-07T07:38:08;98445.78;;;2.92;100.00
30081;BME280;16902;50.816;12.828;2024-03-07T07:43:12;98446.81;;;2.78;100.00
30081;BME280;16902;50.816;12.828;2024-03-07T07:48:26;98455.78;;;3.30;100.00
30081;BME280;16902;50.816;12.828;2024-03-07T07:53:28;98447.34;;;3.50;100.00
30081;BME280;16902;50.816;12.828;2024-03-07T07:58:31;98441.84;;;3.21;100.00
30081;BME280;16902;50.816;12.828;2024-03-07T08:03:32;98435.03;;;2.98;100.00
30081;BME280;16902;50.816;12.828;2024-03-07T08:08:34;98431.19;;;2.92;100.00
30081;BME280;16902;50.816;12.828;2024-03-07T08:13:36;98439.34;;;2.86;100.00
30081;BME280;16902;50.816;12.828;2024-03-07T08:18:38;98439.56;;;2.83;100.00
30081;BME280;16902;50.816;12.828;2024-03-07T08:23:40;98439.00;;;2.91;100.00
30081;BME280;16902;50.816;12.828;2024-03-07T08:28:42;98456.84;;;2.70;100.00
30081;BME280;16902;50.816;12.828;2024-03-07T08:33:44;98447.69;;;2.66;100.00
30081;BME280;16902;50.816;12.828;2024-03-07T08:38:46;98451.19;;;2.53;100.00
30081;BME280;16902;50.816;12.828;2024-03-07T08:43:48;98452.88;;;2.42;100.00
30081;BME280;16902;50.816;12.828;2024-03-07T08:48:50;98447.31;;;2.48;100.00
30081;BME280;16902;50.816;12.828;2024-03-07T08:53:54;98442.75;;;2.87;100.00
30081;BME280;16902;50.816;12.828;2024-03-07T08:58:55;98443.22;;;3.03;100.00
30081;BME280;16902;50.816;12.828;2024-03-07T09:03:57;98441.59;;;2.91;100.00
30081;BME280;16902;50.816;12.828;2024-03-07T09:09:01;98440.78;;;3.01;100.00
30081;BME280;16902;50.816;12.828;2024-03-07T09:14:03;98439.94;;;2.90;100.00
30081;BME280;16902;50.816;12.828;2024-03-07T09:19:10;98434.91;;;2.88;100.00
30081;BME280;16902;50.816;12.828;2024-03-07T09:24:15;98442.91;;;3.30;100.00
30081;BME280;16902;50.816;12.828;2024-03-07T09:29:18;98443.22;;;3.14;100.00
30081;BME280;16902;50.816;12.828;2024-03-07T09:34:21;98442.06;;;3.07;100.00
30081;BME280;16902;50.816;12.828;2024-03-07T09:39:22;98452.72;;;3.25;100.00
30081;BME280;16902;50.816;12.828;2024-03-07T09:44:26;98444.16;;;3.47;100.00
30081;BME280;16902;50.816;12.828;2024-03-07T09:49:29;98449.34;;;3.24;100.00
30081;BME280;16902;50.816;12.828;2024-03-07T09:54:31;98449.09;;;3.16;100.00
30081;BME280;16902;50.816;12.828;2024-03-07T09:59:34;98450.25;;;3.23;100.00
30081;BME280;16902;50.816;12.828;2024-03-07T10:04:42;98448.63;;;3.22;100.00
30081;BME280;16902;50.816;12.828;2024-03-07T10:09:47;98444.63;;;3.18;100.00
30081;BME280;16902;50.816;12.828;2024-03-07T10:14:55;98441.50;;;3.26;100.00
30081;BME280;16902;50.816;12.828;2024-03-07T10:19:59;98442.66;;;3.44;100.00
30081;BME280;16902;50.816;12.828;2024-03-07T10:25:03;98436.66;;;3.77;100.00
30081;BME280;16902;50.816;12.828;2024-03-07T10:30:05;98443.72;;;3.96;100.00
30081;BME280;16902;50.816;12.828;2024-03-07T10:35:09;98434.78;;;3.57;100.00
30081;BME280;16902;50.816;12.828;2024-03-07T10:40:12;98430.50;;;4.01;100.00
30081;BME280;16902;50.816;12.828;2024-03-07T10:45:20;98432.13;;;4.34;100.00
30081;BME280;16902;50.816;12.828;2024-03-07T10:55:58;98438.84;;;5.30;100.00
30081;BME280;16902;50.816;12.828;2024-03-07T11:01:02;98438.06;;;5.39;100.00
30081;BME280;16902;50.816;12.828;2024-03-07T11:06:07;98436.84;;;4.29;100.00
30081;BME280;16902;50.816;12.828;2024-03-07T11:11:13;98429.13;;;3.85;100.00
30081;BME280;16902;50.816;12.828;2024-03-07T11:16:16;98425.78;;;4.06;100.00
30081;BME280;16902;50.816;12.828;2024-03-07T11:21:40;98436.41;;;4.45;100.00
30081;BME280;16902;50.816;12.828;2024-03-07T11:26:41;98424.44;;;4.55;100.00
30081;BME280;16902;50.816;12.828;2024-03-07T11:31:44;98429.91;;;4.61;100.00
30081;BME280;16902;50.816;12.828;2024-03-07T11:36:48;98417.19;;;4.49;100.00
30081;BME280;16902;50.816;12.828;2024-03-07T11:41:51;98399.94;;;5.62;100.00
30081;BME280;16902;50.816;12.828;2024-03-07T11:46:54;98409.88;;;6.92;100.00
30081;BME280;16902;50.816;12.828;2024-03-07T11:51:55;98407.63;;;5.12;100.00
30081;BME280;16902;50.816;12.828;2024-03-07T11:56:59;98411.81;;;5.03;100.00
30081;BME280;16902;50.816;12.828;2024-03-07T12:02:01;98404.75;;;5.36;100.00
30081;BME280;16902;50.816;12.828;2024-03-07T12:07:03;98401.72;;;4.70;100.00
30081;BME280;16902;50.816;12.828;2024-03-07T12:12:08;98400.84;;;4.59;100.00
30081;BME280;16902;50.816;12.828;2024-03-07T12:17:11;98389.09;;;4.97;100.00
30081;BME280;16902;50.816;12.828;2024-03-07T12:22:13;98394.47;;;4.84;100.00
30081;BME280;16902;50.816;12.828;2024-03-07T12:27:16;98389.88;;;4.88;100.00
30081;BME280;16902;50.816;12.828;2024-03-07T12:32:17;98379.78;;;4.75;100.00
30081;BME280;16902;50.816;12.828;2024-03-07T12:37:19;98388.28;;;4.97;100.00
30081;BME280;16902;50.816;12.828;2024-03-07T12:42:28;98387.47;;;5.36;100.00
30081;BME280;16902;50.816;12.828;2024-03-07T12:47:30;98379.72;;;5.36;100.00
30081;BME280;16902;50.816;12.828;2024-03-07T12:52:32;98374.16;;;5.31;100.00
30081;BME280;16902;50.816;12.828;2024-03-07T12:57:34;98372.84;;;4.76;100.00
30081;BME280;16902;50.816;12.828;2024-03-07T13:02:35;98363.41;;;5.26;100.00
30081;BME280;16902;50.816;12.828;2024-03-07T13:07:37;98356.47;;;7.74;100.00
30081;BME280;16902;50.816;12.828;2024-03-07T13:12:39;98354.78;;;6.73;100.00
30081;BME280;16902;50.816;12.828;2024-03-07T13:17:44;98355.81;;;8.43;100.00
30081;BME280;16902;50.816;12.828;2024-03-07T13:22:46;98353.28;;;7.07;100.00
30081;BME280;16902;50.816;12.828;2024-03-07T13:28:07;98359.44;;;6.50;100.00
30081;BME280;16902;50.816;12.828;2024-03-07T13:33:10;98357.38;;;5.56;100.00
30081;BME280;16902;50.816;12.828;2024-03-07T13:38:12;98362.28;;;5.09;100.00
30081;BME280;16902;50.816;12.828;2024-03-07T13:43:14;98354.66;;;5.58;100.00
30081;BME280;16902;50.816;12.828;2024-03-07T13:48:16;98357.81;;;5.61;100.00
30081;BME280;16902;50.816;12.828;2024-03-07T13:53:20;98362.38;;;4.98;100.00
30081;BME280;16902;50.816;12.828;2024-03-07T14:03:54;98361.53;;;4.98;100.00
30081;BME280;16902;50.816;12.828;2024-03-07T14:15:29;98366.34;;;4.81;100.00
30081;BME280;16902;50.816;12.828;2024-03-07T14:31:43;98349.38;;;3.95;100.00
30081;BME280;16902;50.816;12.828;2024-03-07T14:36:55;98350.38;;;3.72;100.00
30081;BME280;16902;50.816;12.828;2024-03-07T14:42:01;98341.53;;;3.65;100.00
30081;BME280;16902;50.816;12.828;2024-03-07T14:47:07;98345.19;;;3.51;100.00
30081;BME280;16902;50.816;12.828;2024-03-07T14:52:09;98340.72;;;3.64;100.00
30081;BME280;16902;50.816;12.828;2024-03-07T14:57:14;98348.06;;;3.69;100.00
30081;BME280;16902;50.816;12.828;2024-03-07T15:02:20;98346.56;;;3.98;100.00
30081;BME280;16902;50.816;12.828;2024-03-07T15:07:22;98347.88;;;4.13;100.00
30081;BME280;16902;50.816;12.828;2024-03-07T15:12:26;98350.63;;;4.01;100.00
30081;BME280;16902;50.816;12.828;2024-03-07T15:17:28;98341.16;;;3.69;100.00
30081;BME280;16902;50.816;12.828;2024-03-07T15:22:30;98343.19;;;3.54;100.00
30081;BME280;16902;50.816;12.828;2024-03-07T15:27:34;98342.28;;;3.44;100.00
30081;BME280;16902;50.816;12.828;2024-03-07T15:32:41;98345.00;;;3.31;100.00
30081;BME280;16902;50.816;12.828;2024-03-07T15:37:48;98349.09;;;3.23;100.00
30081;BME280;16902;50.816;12.828;2024-03-07T15:42:51;98346.03;;;3.40;100.00
30081;BME280;16902;50.816;12.828;2024-03-07T15:47:57;98343.81;;;3.35;100.00
30081;BME280;16902;50.816;12.828;2024-03-07T15:53:00;98347.00;;;3.17;100.00
30081;BME280;16902;50.816;12.828;2024-03-07T15:58:02;98348.28;;;2.89;100.00
30081;BME280;16902;50.816;12.828;2024-03-07T16:03:08;98340.09;;;2.95;100.00
30081;BME280;16902;50.816;12.828;2024-03-07T16:08:14;98338.00;;;2.77;100.00
30081;BME280;16902;50.816;12.828;2024-03-07T16:13:17;98340.22;;;2.71;100.00
30081;BME280;16902;50.816;12.828;2024-03-07T16:18:20;98343.16;;;2.66;100.00
30081;BME280;16902;50.816;12.828;2024-03-07T16:23:26;98345.94;;;2.52;100.00
30081;BME280;16902;50.816;12.828;2024-03-07T16:28:29;98337.75;;;2.47;100.00
30081;BME280;16902;50.816;12.828;2024-03-07T16:33:31;98344.25;;;2.40;100.00
30081;BME280;16902;50.816;12.828;2024-03-07T16:38:33;98341.69;;;2.40;100.00
30081;BME280;16902;50.816;12.828;2024-03-07T16:43:36;98344.47;;;2.37;100.00
30081;BME280;16902;50.816;12.828;2024-03-07T16:48:39;98343.19;;;2.31;100.00
30081;BME280;16902;50.816;12.828;2024-03-07T16:53:41;98348.66;;;2.26;100.00
30081;BME280;16902;50.816;12.828;2024-03-07T16:58:43;98346.56;;;2.20;100.00
30081;BME280;16902;50.816;12.828;2024-03-07T17:03:45;98354.81;;;2.13;100.00
30081;BME280;16902;50.816;12.828;2024-03-07T17:08:47;98353.78;;;2.15;100.00
30081;BME280;16902;50.816;12.828;2024-03-07T17:13:49;98361.47;;;2.15;100.00
30081;BME280;16902;50.816;12.828;2024-03-07T17:18:52;98358.22;;;2.13;100.00
30081;BME280;16902;50.816;12.828;2024-03-07T17:23:54;98356.69;;;2.11;100.00
30081;BME280;16902;50.816;12.828;2024-03-07T17:28:56;98357.75;;;2.08;100.00
30081;BME280;16902;50.816;12.828;2024-03-07T17:33:58;98351.19;;;2.04;100.00
30081;BME280;16902;50.816;12.828;2024-03-07T17:39:00;98362.97;;;2.06;100.00
30081;BME280;16902;50.816;12.828;2024-03-07T17:44:03;98357.81;;;2.06;100.00
30081;BME280;16902;50.816;12.828;2024-03-07T17:49:09;98355.25;;;2.06;100.00
30081;BME280;16902;50.816;12.828;2024-03-07T17:54:12;98358.66;;;2.07;100.00
30081;BME280;16902;50.816;12.828;2024-03-07T17:59:17;98356.66;;;1.99;100.00
30081;BME280;16902;50.816;12.828;2024-03-07T18:04:22;98349.16;;;1.96;100.00
30081;BME280;16902;50.816;12.828;2024-03-07T18:09:26;98351.03;;;1.94;100.00
30081;BME280;16902;50.816;12.828;2024-03-07T18:14:30;98345.66;;;1.97;100.00
30081;BME280;16902;50.816;12.828;2024-03-07T18:19:35;98344.13;;;1.95;100.00
30081;BME280;16902;50.816;12.828;2024-03-07T18:24:37;98347.16;;;1.89;100.00
30081;BME280;16902;50.816;12.828;2024-03-07T18:29:39;98348.88;;;1.88;100.00
30081;BME280;16902;50.816;12.828;2024-03-07T18:34:41;98346.91;;;1.92;100.00
30081;BME280;16902;50.816;12.828;2024-03-07T18:39:43;98342.72;;;1.91;100.00
30081;BME280;16902;50.816;12.828;2024-03-07T18:44:46;98356.25;;;1.93;100.00
30081;BME280;16902;50.816;12.828;2024-03-07T18:49:51;98356.38;;;1.91;100.00
30081;BME280;16902;50.816;12.828;2024-03-07T18:54:55;98349.72;;;1.89;100.00
30081;BME280;16902;50.816;12.828;2024-03-07T18:59:58;98355.78;;;1.88;100.00
30081;BME280;16902;50.816;12.828;2024-03-07T19:05:00;98350.88;;;1.85;100.00
30081;BME280;16902;50.816;12.828;2024-03-07T19:10:09;98349.22;;;1.84;100.00
30081;BME280;16902;50.816;12.828;2024-03-07T19:15:19;98348.41;;;1.83;100.00
30081;BME280;16902;50.816;12.828;2024-03-07T19:20:22;98347.56;;;1.83;100.00
30081;BME280;16902;50.816;12.828;2024-03-07T19:25:24;98340.00;;;1.81;100.00
30081;BME280;16902;50.816;12.828;2024-03-07T19:30:26;98334.97;;;1.79;100.00
30081;BME280;16902;50.816;12.828;2024-03-07T19:35:32;98338.56;;;1.77;100.00
30081;BME280;16902;50.816;12.828;2024-03-07T19:40:34;98335.41;;;1.73;100.00
30081;BME280;16902;50.816;12.828;2024-03-07T19:45:41;98330.03;;;1.65;100.00
30081;BME280;16902;50.816;12.828;2024-03-07T19:50:43;98322.25;;;1.54;100.00
30081;BME280;16902;50.816;12.828;2024-03-07T19:55:47;98316.41;;;1.52;100.00
30081;BME280;16902;50.816;12.828;2024-03-07T20:00:51;98317.34;;;1.51;100.00
30081;BME280;16902;50.816;12.828;2024-03-07T20:05:53;98314.19;;;1.47;100.00
30081;BME280;16902;50.816;12.828;2024-03-07T20:10:56;98309.84;;;1.48;100.00
30081;BME280;16902;50.816;12.828;2024-03-07T20:15:59;98309.03;;;1.47;100.00
30081;BME280;16902;50.816;12.828;2024-03-07T20:21:03;98306.59;;;1.46;100.00
30081;BME280;16902;50.816;12.828;2024-03-07T20:26:05;98300.16;;;1.40;100.00
30081;BME280;16902;50.816;12.828;2024-03-07T20:31:07;98303.94;;;1.35;100.00
30081;BME280;16902;50.816;12.828;2024-03-07T20:36:10;98302.56;;;1.31;100.00
30081;BME280;16902;50.816;12.828;2024-03-07T20:41:12;98300.91;;;1.29;100.00
30081;BME280;16902;50.816;12.828;2024-03-07T20:46:15;98304.59;;;1.25;100.00
30081;BME280;16902;50.816;12.828;2024-03-07T20:51:17;98300.72;;;1.20;100.00
30081;BME280;16902;50.816;12.828;2024-03-07T20:56:20;98295.72;;;1.18;100.00
30081;BME280;16902;50.816;12.828;2024-03-07T21:01:22;98294.06;;;1.17;100.00
30081;BME280;16902;50.816;12.828;2024-03-07T21:06:26;98284.56;;;1.07;100.00
30081;BME280;16902;50.816;12.828;2024-03-07T21:11:28;98282.84;;;0.94;100.00
30081;BME280;16902;50.816;12.828;2024-03-07T21:16:34;98277.66;;;0.70;100.00
30081;BME280;16902;50.816;12.828;2024-03-07T21:21:36;98275.03;;;0.46;100.00
30081;BME280;16902;50.816;12.828;2024-03-07T21:26:38;98271.22;;;0.14;100.00
30081;BME280;16902;50.816;12.828;2024-03-07T21:31:40;98263.66;;;-0.01;100.00
30081;BME280;16902;50.816;12.828;2024-03-07T21:36:43;98270.50;;;-0.14;100.00
30081;BME280;16902;50.816;12.828;2024-03-07T21:41:45;98261.75;;;-0.37;100.00
30081;BME280;16902;50.816;12.828;2024-03-07T21:46:48;98261.69;;;-0.62;100.00
30081;BME280;16902;50.816;12.828;2024-03-07T21:51:50;98250.63;;;-0.90;100.00
30081;BME280;16902;50.816;12.828;2024-03-07T21:56:51;98254.69;;;-1.00;100.00
30081;BME280;16902;50.816;12.828;2024-03-07T22:01:54;98248.13;;;-1.04;100.00
30081;BME280;16902;50.816;12.828;2024-03-07T22:06:56;98247.69;;;-1.11;100.00
30081;BME280;16902;50.816;12.828;2024-03-07T22:11:59;98248.59;;;-1.26;100.00
30081;BME280;16902;50.816;12.828;2024-03-07T22:17:01;98236.88;;;-1.43;100.00
30081;BME280;16902;50.816;12.828;2024-03-07T22:22:06;98246.66;;;-1.64;100.00
30081;BME280;16902;50.816;12.828;2024-03-07T22:27:08;98244.28;;;-1.81;100.00
30081;BME280;16902;50.816;12.828;2024-03-07T22:32:11;98248.44;;;-1.94;100.00
30081;BME280;16902;50.816;12.828;2024-03-07T22:37:14;98241.59;;;-2.08;100.00
30081;BME280;16902;50.816;12.828;2024-03-07T22:42:17;98242.75;;;-2.14;100.00
30081;BME280;16902;50.816;12.828;2024-03-07T22:47:19;98243.13;;;-2.20;100.00
30081;BME280;16902;50.816;12.828;2024-03-07T22:52:23;98239.31;;;-2.27;100.00
30081;BME280;16902;50.816;12.828;2024-03-07T22:57:25;98226.97;;;-2.35;100.00
30081;BME280;16902;50.816;12.828;2024-03-07T23:02:27;98222.03;;;-2.38;100.00
30081;BME280;16902;50.816;12.828;2024-03-07T23:07:29;98225.06;;;-2.31;100.00
30081;BME280;16902;50.816;12.828;2024-03-07T23:12:31;98215.16;;;-2.21;100.00
30081;BME280;16902;50.816;12.828;2024-03-07T23:17:33;98217.34;;;-2.29;100.00
30081;BME280;16902;50.816;12.828;2024-03-07T23:22:35;98213.00;;;-2.43;100.00
30081;BME280;16902;50.816;12.828;2024-03-07T23:27:37;98210.16;;;-2.53;100.00
30081;BME280;16902;50.816;12.828;2024-03-07T23:32:39;98208.78;;;-2.59;100.00
30081;BME280;16902;50.816;12.828;2024-03-07T23:37:41;98207.81;;;-2.56;100.00
30081;BME280;16902;50.816;12.828;2024-03-07T23:42:43;98212.06;;;-2.56;100.00
30081;BME280;16902;50.816;12.828;2024-03-07T23:47:47;98201.56;;;-2.66;100.00
30081;BME280;16902;50.816;12.828;2024-03-07T23:52:50;98198.47;;;-2.71;100.00
30081;BME280;16902;50.816;12.828;2024-03-07T23:57:51;98193.72;;;-2.77;100.00
